AirNav   Pilot Hours Calculator
 
 909 users online  

4FD7 Flanders Field Airport
Polk City, Florida, USA

GOING TO POLK CITY?


FAA INFORMATION EFFECTIVE 07 NOVEMBER 2019

Location

FAA Identifier: 4FD7
Lat/Long: 28-12-23.0490N 081-49-40.2820W
28-12.384150N 081-49.671367W
28.2064025,-81.8278561
(estimated)
Elevation: 131 ft. / 40 m (estimated)
Variation: 02W (1985)
From city: 1 mile N of POLK CITY, FL
Time zone: UTC -5 (UTC -4 during Daylight Saving Time)
Zip code: 33868

Airport Operations

Airport use: Private use. Permission required prior to landing
Activation date: 03/1988
Control tower: no
ARTCC: JACKSONVILLE CENTER
FSS: SAINT PETERSBURG FLIGHT SERVICE STATION
Attendance: CONTINUOUS
Wind indicator: yes
Segmented circle: yes

Airport Communications

WX ASOS at GIF (9 nm SE): 133.675 (863-956-2097)
WX AWOS-3 at BOW (16 nm S): 123.775 (863-533-9004)
WX AWOS-3PT at LAL (17 nm SW): 118.025 (863-834-2030)
WX AWOS-3PT at ZPH (17 nm W): 118.975 (813-780-0031)

Nearby radio navigation aids

VOR radial/distance  VOR name  Freq  Var
LALr036/16.5LAKELAND VORTAC116.0001E
ORLr232/32.9ORLANDO VORTAC112.2000E

Airport Services

Runway Information

Runway 18/36

Dimensions: 1800 x 135 ft. / 549 x 41 m
Surface: turf
RUNWAY 18  RUNWAY 36
Traffic pattern: rightleft

Airport Ownership and Management from official FAA records

Ownership: Privately-owned
Owner: CALVIN L. WYATT & SUSAN E. WYATT
6911 CONLEY DR
POLK CITY, FL 33868
Phone 863-984-3935
Manager: ROBERT L. NEWBERRY
804 LAKE HOLLINGSWORTH DR
LAKELAND, FL 33803
Phone 863-899-5216

Additional Remarks

FOR CD CTC ORLANDO APCH AT 407-852-7553.
(CONTACT TITLE) TERRY & GAYE MELTON, C/O MITCHLIND 6801 FLANDERS STATION DR. POLK CITY, FL 33868 863-984-2517 ROBERT L. NEWBERRY 804 LAKE HOLLINGSWORTH DR LAKELAND, FL 33803 863-899-5216 ROBERT & SANDRA LOCK 6925 CONLEY DR POLK CITY, FL 33868 863-984-4061 ANDREW J. SALTER & MARGARET MARY O'KEEF 6917 CONLEY DR POLK CITY, FL 33868 407-409-1268

Instrument Procedures

There are no published instrument procedures at 4FD7.

Some nearby airports with instrument procedures:

KGIF - Winter Haven Regional Airport (9 nm SE)
KBOW - Bartow Executive Airport (16 nm S)
KLAL - Lakeland Linder International Airport (17 nm SW)
KZPH - Zephyrhills Municipal Airport (17 nm W)
KISM - Kissimmee Gateway Airport (21 nm E)
 
Loc | Ops | Rwys | IFR | FBO | Links
Com | Nav | Svcs | Stats | Notes


 
Aerial photo
WARNING: Photo may not be current or correct
Aerial photo of 4FD7 (Flanders Field Airport)
Photo by Andy Smothers
Photo taken 20-Sep-2015
looking north.

Do you have a better or more recent aerial photo of Flanders Field Airport that you would like to share? If so, please send us your photo.

 
Airport distance calculator
Flying to Flanders Field Airport? Find the distance to fly.

From to 4FD7

Sunrise and sunset
Times for 19-Nov-2019
 Local
(UTC-5)
 Zulu
(UTC)
Morning civil twilight06:2811:28
Sunrise06:5311:53
Sunset17:3222:32
Evening civil twilight17:5722:57

Current date and time
Zulu (UTC)  19-Nov-2019 12:52:54
Local (UTC-5)  19-Nov-2019 07:52:54
 
METAR
KGIF 
9nm SE 
191153Z AUTO 22003KT 4SM BR FEW029 BKN055 14/13 A2994 RMK AO2 SLP136 T01440133 10150 20128 53018
KBOW 
17nm S 
191230Z 00000KT 10SM SCT050 13/12 A2994
KZPH 
17nm W 
191235Z AUTO 00000KT 4SM BR SCT031 SCT039 BKN045 12/12 A2996 RMK A02 T01190118
KLAL 
18nm SW 
191145Z 00000KT 10SM SCT024 BKN050 13/12 A2993
TAF
KLAL 
18nm SW 
191120Z 1912/2012 00000KT P6SM SCT030 BKN060 TEMPO 1912/1914 3SM BR BKN030 FM191500 31010KT P6SM FEW030 SCT250 FM200100 VRB03KT P6SM SKC
KISM 
21nm E 
191128Z 1912/2012 VRB04KT P6SM FEW030 FM191300 31007KT P6SM FEW035 SCT250 FM191800 28012KT P6SM FEW030 SCT250
NOTAMs
Click for the latest NOTAMs
NOTAMs are issued by the DoD/FAA and will open in a separate window not controlled by AirNav.

 

 
 

Would you like to see your business listed on this page?

 If your business provides an interesting product or service to pilots, flight crews, aircraft, or users of the Flanders Field Airport, you should consider listing it here.  To start the listing process, click on the button below
 
Add a business
 

Other Pages about Flanders Field Airport

Update a link
 
Copyright © AirNav, LLC. All rights reserved. Privacy Policy  Contact